Terminal Aerodrome Forecast
Issued by NWS St Louis, MO

Home | Current Version | Previous Version | Text Only | Print | Product List | Glossary On
Versions: 1 2 3 4 5 6 7 8 9 10 11 12 13 14 15 16 17 18 19 20 21 22
000
FTUS43 KLSX 281024 AAB
TAFCOU
TAF AMD
KCOU 281024Z 2810/2906 31007KT 2SM BR SCT002
      TEMPO 2810/2813 3/4SM BR OVC002
     FM281400 31008KT P6SM BKN040
     FM281800 31010KT P6SM SCT050=

USA.gov is the U.S. government's official web portal to all federal, state and local government web resources and services.